sensor_id;sensor_type;location;lat;lon;timestamp;P1;durP1;ratioP1;P2;durP2;ratioP2
12947;SDS011;6539;49.476;8.484;2022-12-11T00:01:06;27.33;;;18.80;;
12947;SDS011;6539;49.476;8.484;2022-12-11T00:03:37;29.67;;;19.47;;
12947;SDS011;6539;49.476;8.484;2022-12-11T00:06:05;27.03;;;19.17;;
12947;SDS011;6539;49.476;8.484;2022-12-11T00:08:37;26.00;;;17.93;;
12947;SDS011;6539;49.476;8.484;2022-12-11T00:11:04;31.10;;;19.77;;
12947;SDS011;6539;49.476;8.484;2022-12-11T00:13:35;30.53;;;20.50;;
12947;SDS011;6539;49.476;8.484;2022-12-11T00:16:01;30.63;;;19.23;;
12947;SDS011;6539;49.476;8.484;2022-12-11T00:18:28;29.50;;;18.93;;
12947;SDS011;6539;49.476;8.484;2022-12-11T00:20:58;27.73;;;19.20;;
12947;SDS011;6539;49.476;8.484;2022-12-11T00:23:33;30.13;;;19.40;;
12947;SDS011;6539;49.476;8.484;2022-12-11T00:26:03;30.93;;;20.00;;
12947;SDS011;6539;49.476;8.484;2022-12-11T00:28:36;29.23;;;19.10;;
12947;SDS011;6539;49.476;8.484;2022-12-11T00:31:06;28.90;;;18.50;;
12947;SDS011;6539;49.476;8.484;2022-12-11T00:33:36;27.03;;;18.73;;
12947;SDS011;6539;49.476;8.484;2022-12-11T00:36:03;28.63;;;19.23;;
12947;SDS011;6539;49.476;8.484;2022-12-11T00:38:35;30.53;;;19.67;;
12947;SDS011;6539;49.476;8.484;2022-12-11T00:41:01;27.50;;;18.77;;
12947;SDS011;6539;49.476;8.484;2022-12-11T00:43:30;27.83;;;18.17;;
12947;SDS011;6539;49.476;8.484;2022-12-11T00:45:59;29.00;;;19.13;;
12947;SDS011;6539;49.476;8.484;2022-12-11T00:48:25;31.53;;;20.77;;
12947;SDS011;6539;49.476;8.484;2022-12-11T00:50:51;28.83;;;19.13;;
12947;SDS011;6539;49.476;8.484;2022-12-11T00:53:21;32.17;;;19.57;;
12947;SDS011;6539;49.476;8.484;2022-12-11T00:55:47;29.33;;;19.80;;
12947;SDS011;6539;49.476;8.484;2022-12-11T00:58:15;30.87;;;19.67;;
12947;SDS011;6539;49.476;8.484;2022-12-11T01:00:43;27.27;;;18.73;;
12947;SDS011;6539;49.476;8.484;2022-12-11T01:03:14;26.90;;;18.17;;
12947;SDS011;6539;49.476;8.484;2022-12-11T01:05:52;28.00;;;18.90;;
12947;SDS011;6539;49.476;8.484;2022-12-11T01:08:21;27.73;;;18.63;;
12947;SDS011;6539;49.476;8.484;2022-12-11T01:10:47;29.80;;;19.27;;
12947;SDS011;6539;49.476;8.484;2022-12-11T01:13:17;25.93;;;17.30;;
12947;SDS011;6539;49.476;8.484;2022-12-11T01:15:50;29.30;;;19.03;;
12947;SDS011;6539;49.476;8.484;2022-12-11T01:18:16;28.73;;;18.60;;
12947;SDS011;6539;49.476;8.484;2022-12-11T01:20:42;28.20;;;18.10;;
12947;SDS011;6539;49.476;8.484;2022-12-11T01:23:09;27.73;;;18.50;;
12947;SDS011;6539;49.476;8.484;2022-12-11T01:25:37;28.67;;;18.27;;
12947;SDS011;6539;49.476;8.484;2022-12-11T01:28:04;26.83;;;19.03;;
12947;SDS011;6539;49.476;8.484;2022-12-11T01:30:31;27.17;;;17.33;;
12947;SDS011;6539;49.476;8.484;2022-12-11T01:32:57;25.50;;;17.57;;
12947;SDS011;6539;49.476;8.484;2022-12-11T01:35:24;26.07;;;17.63;;
12947;SDS011;6539;49.476;8.484;2022-12-11T01:37:50;28.90;;;18.27;;
12947;SDS011;6539;49.476;8.484;2022-12-11T01:40:18;27.23;;;18.63;;
12947;SDS011;6539;49.476;8.484;2022-12-11T01:42:45;27.10;;;18.83;;
12947;SDS011;6539;49.476;8.484;2022-12-11T01:47:48;30.37;;;18.53;;
12947;SDS011;6539;49.476;8.484;2022-12-11T01:50:26;31.17;;;19.50;;
12947;SDS011;6539;49.476;8.484;2022-12-11T01:52:57;27.70;;;18.47;;
12947;SDS011;6539;49.476;8.484;2022-12-11T01:55:26;27.20;;;18.20;;
12947;SDS011;6539;49.476;8.484;2022-12-11T01:57:52;27.17;;;18.57;;
12947;SDS011;6539;49.476;8.484;2022-12-11T02:00:18;26.87;;;18.10;;
12947;SDS011;6539;49.476;8.484;2022-12-11T02:02:50;25.57;;;17.83;;
12947;SDS011;6539;49.476;8.484;2022-12-11T02:05:16;28.13;;;18.50;;
12947;SDS011;6539;49.476;8.484;2022-12-11T02:07:43;27.67;;;18.33;;
12947;SDS011;6539;49.476;8.484;2022-12-11T02:10:22;30.83;;;18.40;;
12947;SDS011;6539;49.476;8.484;2022-12-11T02:13:06;23.90;;;17.60;;
12947;SDS011;6539;49.476;8.484;2022-12-11T02:21:40;26.93;;;18.63;;
12947;SDS011;6539;49.476;8.484;2022-12-11T02:24:22;30.87;;;19.63;;
12947;SDS011;6539;49.476;8.484;2022-12-11T02:30:00;28.90;;;19.03;;
12947;SDS011;6539;49.476;8.484;2022-12-11T02:32:40;28.83;;;19.70;;
12947;SDS011;6539;49.476;8.484;2022-12-11T02:35:18;33.80;;;19.60;;
12947;SDS011;6539;49.476;8.484;2022-12-11T02:38:09;29.47;;;19.13;;
12947;SDS011;6539;49.476;8.484;2022-12-11T02:41:01;32.27;;;19.57;;
12947;SDS011;6539;49.476;8.484;2022-12-11T02:43:29;31.13;;;19.23;;
12947;SDS011;6539;49.476;8.484;2022-12-11T02:45:57;29.03;;;18.23;;
12947;SDS011;6539;49.476;8.484;2022-12-11T02:48:25;30.77;;;19.03;;
12947;SDS011;6539;49.476;8.484;2022-12-11T02:50:53;28.73;;;18.83;;
12947;SDS011;6539;49.476;8.484;2022-12-11T02:53:24;27.90;;;18.20;;
12947;SDS011;6539;49.476;8.484;2022-12-11T02:56:15;29.27;;;19.77;;
12947;SDS011;6539;49.476;8.484;2022-12-11T02:58:58;28.70;;;19.30;;
12947;SDS011;6539;49.476;8.484;2022-12-11T03:01:33;28.03;;;18.50;;
12947;SDS011;6539;49.476;8.484;2022-12-11T03:04:01;29.93;;;19.43;;
12947;SDS011;6539;49.476;8.484;2022-12-11T03:06:31;28.13;;;19.10;;
12947;SDS011;6539;49.476;8.484;2022-12-11T03:09:08;27.20;;;17.97;;
12947;SDS011;6539;49.476;8.484;2022-12-11T03:11:36;29.33;;;18.83;;
12947;SDS011;6539;49.476;8.484;2022-12-11T03:14:05;27.90;;;18.87;;
12947;SDS011;6539;49.476;8.484;2022-12-11T03:16:35;30.03;;;19.50;;
12947;SDS011;6539;49.476;8.484;2022-12-11T03:19:59;29.37;;;19.47;;
12947;SDS011;6539;49.476;8.484;2022-12-11T03:25:50;29.73;;;18.17;;
12947;SDS011;6539;49.476;8.484;2022-12-11T03:28:36;28.17;;;18.50;;
12947;SDS011;6539;49.476;8.484;2022-12-11T03:31:21;31.57;;;19.20;;
12947;SDS011;6539;49.476;8.484;2022-12-11T03:34:22;28.87;;;18.27;;
12947;SDS011;6539;49.476;8.484;2022-12-11T03:36:58;29.43;;;19.80;;
12947;SDS011;6539;49.476;8.484;2022-12-11T03:39:28;28.30;;;18.77;;
12947;SDS011;6539;49.476;8.484;2022-12-11T03:42:03;27.93;;;19.17;;
12947;SDS011;6539;49.476;8.484;2022-12-11T03:44:36;31.17;;;19.73;;
12947;SDS011;6539;49.476;8.484;2022-12-11T03:47:04;27.37;;;18.03;;
12947;SDS011;6539;49.476;8.484;2022-12-11T03:49:36;28.07;;;17.83;;
12947;SDS011;6539;49.476;8.484;2022-12-11T03:52:08;32.00;;;19.13;;
12947;SDS011;6539;49.476;8.484;2022-12-11T03:54:39;27.07;;;18.27;;
12947;SDS011;6539;49.476;8.484;2022-12-11T03:57:13;29.50;;;18.33;;
12947;SDS011;6539;49.476;8.484;2022-12-11T03:59:52;27.40;;;18.67;;
12947;SDS011;6539;49.476;8.484;2022-12-11T04:02:18;28.97;;;19.03;;
12947;SDS011;6539;49.476;8.484;2022-12-11T04:04:43;29.47;;;18.87;;
12947;SDS011;6539;49.476;8.484;2022-12-11T04:07:09;31.13;;;19.13;;
12947;SDS011;6539;49.476;8.484;2022-12-11T04:09:35;29.40;;;19.73;;
12947;SDS011;6539;49.476;8.484;2022-12-11T04:12:02;30.77;;;20.13;;
12947;SDS011;6539;49.476;8.484;2022-12-11T04:14:30;30.67;;;21.33;;
12947;SDS011;6539;49.476;8.484;2022-12-11T04:17:26;30.67;;;20.17;;
12947;SDS011;6539;49.476;8.484;2022-12-11T04:20:16;33.93;;;21.30;;
12947;SDS011;6539;49.476;8.484;2022-12-11T04:23:03;31.73;;;20.97;;
12947;SDS011;6539;49.476;8.484;2022-12-11T04:25:49;34.70;;;22.00;;
12947;SDS011;6539;49.476;8.484;2022-12-11T04:28:16;33.33;;;21.97;;
12947;SDS011;6539;49.476;8.484;2022-12-11T04:30:47;38.17;;;23.17;;
12947;SDS011;6539;49.476;8.484;2022-12-11T04:33:16;28.63;;;20.50;;
12947;SDS011;6539;49.476;8.484;2022-12-11T04:35:41;32.43;;;22.40;;
12947;SDS011;6539;49.476;8.484;2022-12-11T04:38:07;35.43;;;22.83;;
12947;SDS011;6539;49.476;8.484;2022-12-11T04:40:33;34.83;;;23.00;;
12947;SDS011;6539;49.476;8.484;2022-12-11T04:42:59;31.73;;;21.50;;
12947;SDS011;6539;49.476;8.484;2022-12-11T04:45:24;33.13;;;21.37;;
12947;SDS011;6539;49.476;8.484;2022-12-11T04:47:50;34.03;;;22.27;;
12947;SDS011;6539;49.476;8.484;2022-12-11T04:50:16;31.53;;;21.30;;
12947;SDS011;6539;49.476;8.484;2022-12-11T04:52:43;35.97;;;22.37;;
12947;SDS011;6539;49.476;8.484;2022-12-11T04:55:11;33.70;;;22.60;;
12947;SDS011;6539;49.476;8.484;2022-12-11T04:57:38;32.27;;;21.60;;
12947;SDS011;6539;49.476;8.484;2022-12-11T05:00:09;30.70;;;21.30;;
12947;SDS011;6539;49.476;8.484;2022-12-11T05:02:39;35.67;;;22.67;;
12947;SDS011;6539;49.476;8.484;2022-12-11T05:05:08;35.40;;;23.37;;
12947;SDS011;6539;49.476;8.484;2022-12-11T05:07:36;32.23;;;21.30;;
12947;SDS011;6539;49.476;8.484;2022-12-11T05:10:04;32.23;;;22.00;;
12947;SDS011;6539;49.476;8.484;2022-12-11T05:12:38;31.63;;;21.33;;
12947;SDS011;6539;49.476;8.484;2022-12-11T05:15:05;34.67;;;21.10;;
12947;SDS011;6539;49.476;8.484;2022-12-11T05:17:33;29.97;;;19.37;;
12947;SDS011;6539;49.476;8.484;2022-12-11T05:20:02;32.03;;;19.90;;
12947;SDS011;6539;49.476;8.484;2022-12-11T05:22:33;33.07;;;20.13;;
12947;SDS011;6539;49.476;8.484;2022-12-11T05:24:59;27.17;;;19.00;;
12947;SDS011;6539;49.476;8.484;2022-12-11T05:27:24;29.83;;;19.03;;
12947;SDS011;6539;49.476;8.484;2022-12-11T05:29:50;26.10;;;19.20;;
12947;SDS011;6539;49.476;8.484;2022-12-11T05:32:18;27.77;;;17.50;;
12947;SDS011;6539;49.476;8.484;2022-12-11T05:34:44;28.73;;;18.77;;
12947;SDS011;6539;49.476;8.484;2022-12-11T05:37:12;27.47;;;17.00;;
12947;SDS011;6539;49.476;8.484;2022-12-11T05:39:38;25.53;;;17.13;;
12947;SDS011;6539;49.476;8.484;2022-12-11T05:42:04;28.27;;;17.80;;
12947;SDS011;6539;49.476;8.484;2022-12-11T05:44:33;27.33;;;18.13;;
12947;SDS011;6539;49.476;8.484;2022-12-11T05:46:59;26.57;;;17.43;;
12947;SDS011;6539;49.476;8.484;2022-12-11T05:49:24;25.30;;;17.40;;
12947;SDS011;6539;49.476;8.484;2022-12-11T05:51:50;28.67;;;18.60;;
12947;SDS011;6539;49.476;8.484;2022-12-11T05:54:18;29.07;;;17.53;;
12947;SDS011;6539;49.476;8.484;2022-12-11T05:56:44;27.97;;;17.10;;
12947;SDS011;6539;49.476;8.484;2022-12-11T05:59:16;27.70;;;17.97;;
12947;SDS011;6539;49.476;8.484;2022-12-11T06:01:43;26.97;;;17.87;;
12947;SDS011;6539;49.476;8.484;2022-12-11T06:04:12;24.73;;;16.87;;
12947;SDS011;6539;49.476;8.484;2022-12-11T06:06:37;22.37;;;16.17;;
12947;SDS011;6539;49.476;8.484;2022-12-11T06:09:12;28.70;;;16.90;;
12947;SDS011;6539;49.476;8.484;2022-12-11T06:11:42;27.87;;;17.20;;
12947;SDS011;6539;49.476;8.484;2022-12-11T06:14:08;26.03;;;16.93;;
12947;SDS011;6539;49.476;8.484;2022-12-11T06:16:38;28.50;;;16.80;;
12947;SDS011;6539;49.476;8.484;2022-12-11T06:19:06;25.10;;;16.60;;
12947;SDS011;6539;49.476;8.484;2022-12-11T06:21:40;24.60;;;17.03;;
12947;SDS011;6539;49.476;8.484;2022-12-11T06:24:09;24.43;;;17.30;;
12947;SDS011;6539;49.476;8.484;2022-12-11T06:26:35;24.37;;;16.83;;
12947;SDS011;6539;49.476;8.484;2022-12-11T06:29:01;26.77;;;16.70;;
12947;SDS011;6539;49.476;8.484;2022-12-11T06:31:28;27.00;;;16.57;;
12947;SDS011;6539;49.476;8.484;2022-12-11T06:33:58;22.67;;;15.77;;
12947;SDS011;6539;49.476;8.484;2022-12-11T06:36:29;25.97;;;16.23;;
12947;SDS011;6539;49.476;8.484;2022-12-11T06:38:57;25.87;;;15.80;;
12947;SDS011;6539;49.476;8.484;2022-12-11T06:41:25;23.80;;;15.43;;
12947;SDS011;6539;49.476;8.484;2022-12-11T06:43:51;23.93;;;15.73;;
12947;SDS011;6539;49.476;8.484;2022-12-11T06:46:17;23.93;;;15.97;;
12947;SDS011;6539;49.476;8.484;2022-12-11T06:48:44;23.93;;;15.70;;
12947;SDS011;6539;49.476;8.484;2022-12-11T06:51:12;22.17;;;15.53;;
12947;SDS011;6539;49.476;8.484;2022-12-11T06:53:41;26.80;;;17.67;;
12947;SDS011;6539;49.476;8.484;2022-12-11T06:56:09;24.47;;;16.83;;
12947;SDS011;6539;49.476;8.484;2022-12-11T06:58:41;22.93;;;16.70;;
12947;SDS011;6539;49.476;8.484;2022-12-11T07:01:14;24.07;;;17.33;;
12947;SDS011;6539;49.476;8.484;2022-12-11T07:03:44;25.97;;;16.57;;
12947;SDS011;6539;49.476;8.484;2022-12-11T07:06:12;26.73;;;16.93;;
12947;SDS011;6539;49.476;8.484;2022-12-11T07:08:42;26.00;;;16.67;;
12947;SDS011;6539;49.476;8.484;2022-12-11T07:11:09;27.00;;;16.60;;
12947;SDS011;6539;49.476;8.484;2022-12-11T07:13:40;28.50;;;20.17;;
12947;SDS011;6539;49.476;8.484;2022-12-11T07:16:07;27.80;;;18.27;;
12947;SDS011;6539;49.476;8.484;2022-12-11T07:18:38;26.13;;;16.33;;
12947;SDS011;6539;49.476;8.484;2022-12-11T07:21:11;28.83;;;16.90;;
12947;SDS011;6539;49.476;8.484;2022-12-11T07:23:40;28.63;;;17.75;;
12947;SDS011;6539;49.476;8.484;2022-12-11T07:26:10;30.53;;;17.80;;
12947;SDS011;6539;49.476;8.484;2022-12-11T07:28:43;25.67;;;16.83;;
12947;SDS011;6539;49.476;8.484;2022-12-11T07:31:10;28.03;;;18.17;;
12947;SDS011;6539;49.476;8.484;2022-12-11T07:33:39;27.80;;;18.47;;
12947;SDS011;6539;49.476;8.484;2022-12-11T07:36:06;26.87;;;16.87;;
12947;SDS011;6539;49.476;8.484;2022-12-11T07:38:35;26.90;;;17.23;;
12947;SDS011;6539;49.476;8.484;2022-12-11T07:41:05;28.00;;;18.23;;
12947;SDS011;6539;49.476;8.484;2022-12-11T07:43:39;28.60;;;17.53;;
12947;SDS011;6539;49.476;8.484;2022-12-11T07:46:07;26.37;;;16.67;;
12947;SDS011;6539;49.476;8.484;2022-12-11T07:48:43;24.47;;;17.00;;
12947;SDS011;6539;49.476;8.484;2022-12-11T07:51:18;32.10;;;18.37;;
12947;SDS011;6539;49.476;8.484;2022-12-11T07:53:51;29.23;;;18.60;;
12947;SDS011;6539;49.476;8.484;2022-12-11T07:56:27;32.30;;;19.20;;
12947;SDS011;6539;49.476;8.484;2022-12-11T07:58:57;31.43;;;18.90;;
12947;SDS011;6539;49.476;8.484;2022-12-11T08:01:25;30.50;;;20.13;;
12947;SDS011;6539;49.476;8.484;2022-12-11T08:03:54;32.53;;;18.93;;
12947;SDS011;6539;49.476;8.484;2022-12-11T08:06:25;37.20;;;19.40;;
12947;SDS011;6539;49.476;8.484;2022-12-11T08:08:58;31.87;;;19.30;;
12947;SDS011;6539;49.476;8.484;2022-12-11T08:11:28;37.40;;;20.60;;
12947;SDS011;6539;49.476;8.484;2022-12-11T08:13:54;38.33;;;19.90;;
12947;SDS011;6539;49.476;8.484;2022-12-11T08:16:26;32.13;;;19.13;;
12947;SDS011;6539;49.476;8.484;2022-12-11T08:18:55;39.77;;;22.13;;
12947;SDS011;6539;49.476;8.484;2022-12-11T08:21:22;35.77;;;21.27;;
12947;SDS011;6539;49.476;8.484;2022-12-11T08:23:53;39.00;;;22.27;;
12947;SDS011;6539;49.476;8.484;2022-12-11T08:26:22;38.73;;;21.00;;
12947;SDS011;6539;49.476;8.484;2022-12-11T08:28:51;36.00;;;21.53;;
12947;SDS011;6539;49.476;8.484;2022-12-11T08:31:20;35.47;;;22.03;;
12947;SDS011;6539;49.476;8.484;2022-12-11T08:33:49;34.97;;;20.27;;
12947;SDS011;6539;49.476;8.484;2022-12-11T08:36:18;34.97;;;21.60;;
12947;SDS011;6539;49.476;8.484;2022-12-11T08:38:49;37.07;;;21.43;;
12947;SDS011;6539;49.476;8.484;2022-12-11T08:41:17;36.07;;;20.40;;
12947;SDS011;6539;49.476;8.484;2022-12-11T08:43:52;35.00;;;20.17;;
12947;SDS011;6539;49.476;8.484;2022-12-11T08:46:20;36.50;;;20.67;;
12947;SDS011;6539;49.476;8.484;2022-12-11T08:48:48;38.53;;;21.70;;
12947;SDS011;6539;49.476;8.484;2022-12-11T08:51:18;35.37;;;20.77;;
12947;SDS011;6539;49.476;8.484;2022-12-11T08:53:47;38.20;;;21.87;;
12947;SDS011;6539;49.476;8.484;2022-12-11T08:56:15;33.50;;;20.23;;
12947;SDS011;6539;49.476;8.484;2022-12-11T08:58:44;36.43;;;19.67;;
12947;SDS011;6539;49.476;8.484;2022-12-11T09:01:15;37.97;;;20.77;;
12947;SDS011;6539;49.476;8.484;2022-12-11T09:03:45;35.90;;;20.97;;
12947;SDS011;6539;49.476;8.484;2022-12-11T09:06:13;37.97;;;20.90;;
12947;SDS011;6539;49.476;8.484;2022-12-11T09:08:44;34.37;;;20.40;;
12947;SDS011;6539;49.476;8.484;2022-12-11T09:11:18;33.60;;;20.07;;
12947;SDS011;6539;49.476;8.484;2022-12-11T09:13:47;37.90;;;22.00;;
12947;SDS011;6539;49.476;8.484;2022-12-11T09:16:14;33.27;;;20.57;;
12947;SDS011;6539;49.476;8.484;2022-12-11T09:18:45;37.40;;;22.03;;
12947;SDS011;6539;49.476;8.484;2022-12-11T09:21:16;39.40;;;20.63;;
12947;SDS011;6539;49.476;8.484;2022-12-11T09:23:46;39.67;;;20.23;;
12947;SDS011;6539;49.476;8.484;2022-12-11T09:26:15;36.50;;;20.77;;
12947;SDS011;6539;49.476;8.484;2022-12-11T09:28:42;34.27;;;19.93;;
12947;SDS011;6539;49.476;8.484;2022-12-11T09:31:13;38.67;;;21.83;;
12947;SDS011;6539;49.476;8.484;2022-12-11T09:33:55;37.70;;;21.40;;
12947;SDS011;6539;49.476;8.484;2022-12-11T09:36:25;33.53;;;19.93;;
12947;SDS011;6539;49.476;8.484;2022-12-11T09:38:54;38.83;;;21.97;;
12947;SDS011;6539;49.476;8.484;2022-12-11T09:44:31;34.40;;;20.20;;
12947;SDS011;6539;49.476;8.484;2022-12-11T09:47:20;35.30;;;20.67;;
12947;SDS011;6539;49.476;8.484;2022-12-11T09:50:02;35.03;;;20.07;;
12947;SDS011;6539;49.476;8.484;2022-12-11T10:01:39;35.87;;;20.27;;
12947;SDS011;6539;49.476;8.484;2022-12-11T10:09:59;34.73;;;20.87;;
12947;SDS011;6539;49.476;8.484;2022-12-11T10:12:54;36.70;;;21.27;;
12947;SDS011;6539;49.476;8.484;2022-12-11T10:15:42;36.60;;;20.47;;
12947;SDS011;6539;49.476;8.484;2022-12-11T10:18:33;36.47;;;21.43;;
12947;SDS011;6539;49.476;8.484;2022-12-11T10:21:03;35.73;;;20.93;;
12947;SDS011;6539;49.476;8.484;2022-12-11T10:23:37;36.17;;;21.57;;
12947;SDS011;6539;49.476;8.484;2022-12-11T10:26:16;46.43;;;23.27;;
12947;SDS011;6539;49.476;8.484;2022-12-11T10:28:45;44.07;;;23.83;;
12947;SDS011;6539;49.476;8.484;2022-12-11T10:34:17;40.77;;;23.67;;
12947;SDS011;6539;49.476;8.484;2022-12-11T10:36:51;43.73;;;23.77;;
12947;SDS011;6539;49.476;8.484;2022-12-11T10:39:19;42.13;;;24.17;;
12947;SDS011;6539;49.476;8.484;2022-12-11T10:41:49;44.47;;;24.63;;
12947;SDS011;6539;49.476;8.484;2022-12-11T10:49:53;44.87;;;24.47;;
12947;SDS011;6539;49.476;8.484;2022-12-11T10:52:31;45.53;;;25.20;;
12947;SDS011;6539;49.476;8.484;2022-12-11T10:55:23;44.37;;;23.60;;
12947;SDS011;6539;49.476;8.484;2022-12-11T10:57:54;50.60;;;25.07;;
12947;SDS011;6539;49.476;8.484;2022-12-11T11:00:39;41.53;;;23.37;;
12947;SDS011;6539;49.476;8.484;2022-12-11T11:03:20;43.90;;;24.40;;
12947;SDS011;6539;49.476;8.484;2022-12-11T11:08:45;45.33;;;23.37;;
12947;SDS011;6539;49.476;8.484;2022-12-11T11:11:24;42.23;;;23.43;;
12947;SDS011;6539;49.476;8.484;2022-12-11T11:14:03;45.23;;;24.10;;
12947;SDS011;6539;49.476;8.484;2022-12-11T11:16:39;46.93;;;25.53;;
12947;SDS011;6539;49.476;8.484;2022-12-11T11:19:30;50.03;;;26.57;;
12947;SDS011;6539;49.476;8.484;2022-12-11T11:22:03;47.03;;;24.57;;
12947;SDS011;6539;49.476;8.484;2022-12-11T11:24:44;41.00;;;23.10;;
12947;SDS011;6539;49.476;8.484;2022-12-11T11:30:01;42.37;;;24.33;;
12947;SDS011;6539;49.476;8.484;2022-12-11T11:32:36;44.40;;;24.23;;
12947;SDS011;6539;49.476;8.484;2022-12-11T11:37:37;41.73;;;25.10;;
12947;SDS011;6539;49.476;8.484;2022-12-11T11:40:12;51.40;;;27.00;;
12947;SDS011;6539;49.476;8.484;2022-12-11T11:42:50;39.47;;;22.73;;
12947;SDS011;6539;49.476;8.484;2022-12-11T11:45:50;42.07;;;22.63;;
12947;SDS011;6539;49.476;8.484;2022-12-11T11:51:18;43.30;;;24.03;;
12947;SDS011;6539;49.476;8.484;2022-12-11T11:54:02;42.77;;;23.83;;
12947;SDS011;6539;49.476;8.484;2022-12-11T11:56:42;42.17;;;24.07;;
12947;SDS011;6539;49.476;8.484;2022-12-11T12:01:55;44.10;;;23.00;;
12947;SDS011;6539;49.476;8.484;2022-12-11T12:04:24;42.77;;;24.53;;
12947;SDS011;6539;49.476;8.484;2022-12-11T12:20:58;37.70;;;22.80;;
12947;SDS011;6539;49.476;8.484;2022-12-11T12:26:43;38.27;;;22.70;;
12947;SDS011;6539;49.476;8.484;2022-12-11T12:32:25;41.33;;;24.00;;
12947;SDS011;6539;49.476;8.484;2022-12-11T12:38:04;37.80;;;22.43;;
12947;SDS011;6539;49.476;8.484;2022-12-11T12:46:20;41.93;;;21.60;;
12947;SDS011;6539;49.476;8.484;2022-12-11T12:48:58;33.10;;;19.30;;
12947;SDS011;6539;49.476;8.484;2022-12-11T12:51:30;37.03;;;21.20;;
12947;SDS011;6539;49.476;8.484;2022-12-11T12:53:58;36.10;;;21.10;;
12947;SDS011;6539;49.476;8.484;2022-12-11T12:56:28;35.57;;;20.27;;
12947;SDS011;6539;49.476;8.484;2022-12-11T12:58:58;38.27;;;20.97;;
12947;SDS011;6539;49.476;8.484;2022-12-11T13:01:25;38.43;;;22.10;;
12947;SDS011;6539;49.476;8.484;2022-12-11T13:04:01;40.00;;;21.83;;
12947;SDS011;6539;49.476;8.484;2022-12-11T13:11:51;37.23;;;21.17;;
12947;SDS011;6539;49.476;8.484;2022-12-11T13:14:28;38.77;;;22.57;;
12947;SDS011;6539;49.476;8.484;2022-12-11T13:19:46;31.33;;;19.60;;
12947;SDS011;6539;49.476;8.484;2022-12-11T13:27:24;35.60;;;20.40;;
12947;SDS011;6539;49.476;8.484;2022-12-11T13:30:06;34.50;;;20.50;;
12947;SDS011;6539;49.476;8.484;2022-12-11T13:33:00;36.27;;;21.87;;
12947;SDS011;6539;49.476;8.484;2022-12-11T13:35:32;37.63;;;21.20;;
12947;SDS011;6539;49.476;8.484;2022-12-11T13:38:06;39.37;;;22.03;;
12947;SDS011;6539;49.476;8.484;2022-12-11T13:40:41;34.87;;;20.00;;
12947;SDS011;6539;49.476;8.484;2022-12-11T13:43:21;35.97;;;20.07;;
12947;SDS011;6539;49.476;8.484;2022-12-11T13:45:53;37.17;;;20.53;;
12947;SDS011;6539;49.476;8.484;2022-12-11T13:48:38;35.60;;;19.70;;
12947;SDS011;6539;49.476;8.484;2022-12-11T13:51:15;32.40;;;19.60;;
12947;SDS011;6539;49.476;8.484;2022-12-11T13:53:44;33.97;;;20.53;;
12947;SDS011;6539;49.476;8.484;2022-12-11T13:56:14;35.43;;;20.07;;
12947;SDS011;6539;49.476;8.484;2022-12-11T13:58:46;35.47;;;20.77;;
12947;SDS011;6539;49.476;8.484;2022-12-11T14:01:18;37.40;;;21.20;;
12947;SDS011;6539;49.476;8.484;2022-12-11T14:03:56;32.03;;;19.63;;
12947;SDS011;6539;49.476;8.484;2022-12-11T14:06:35;32.43;;;19.00;;
12947;SDS011;6539;49.476;8.484;2022-12-11T14:09:08;32.73;;;19.20;;
12947;SDS011;6539;49.476;8.484;2022-12-11T14:11:42;32.50;;;19.57;;
12947;SDS011;6539;49.476;8.484;2022-12-11T14:14:20;31.20;;;19.30;;
12947;SDS011;6539;49.476;8.484;2022-12-11T14:16:58;36.70;;;20.77;;
12947;SDS011;6539;49.476;8.484;2022-12-11T14:19:25;31.50;;;19.77;;
12947;SDS011;6539;49.476;8.484;2022-12-11T14:22:02;32.60;;;19.70;;
12947;SDS011;6539;49.476;8.484;2022-12-11T14:24:32;31.67;;;18.80;;
12947;SDS011;6539;49.476;8.484;2022-12-11T14:26:58;34.47;;;19.77;;
12947;SDS011;6539;49.476;8.484;2022-12-11T14:29:30;33.40;;;19.80;;
12947;SDS011;6539;49.476;8.484;2022-12-11T14:32:01;34.50;;;19.60;;
12947;SDS011;6539;49.476;8.484;2022-12-11T14:34:34;33.53;;;19.77;;
12947;SDS011;6539;49.476;8.484;2022-12-11T14:37:09;39.43;;;22.03;;
12947;SDS011;6539;49.476;8.484;2022-12-11T14:39:40;46.23;;;26.20;;
12947;SDS011;6539;49.476;8.484;2022-12-11T14:42:15;44.73;;;27.60;;
12947;SDS011;6539;49.476;8.484;2022-12-11T14:47:20;40.33;;;23.20;;
12947;SDS011;6539;49.476;8.484;2022-12-11T14:49:53;38.93;;;22.43;;
12947;SDS011;6539;49.476;8.484;2022-12-11T14:52:38;37.07;;;22.67;;
12947;SDS011;6539;49.476;8.484;2022-12-11T14:55:15;43.23;;;23.90;;
12947;SDS011;6539;49.476;8.484;2022-12-11T14:57:50;41.60;;;24.63;;
12947;SDS011;6539;49.476;8.484;2022-12-11T15:00:28;45.60;;;23.53;;
12947;SDS011;6539;49.476;8.484;2022-12-11T15:03:04;40.27;;;23.37;;
12947;SDS011;6539;49.476;8.484;2022-12-11T15:05:46;38.60;;;22.87;;
12947;SDS011;6539;49.476;8.484;2022-12-11T15:08:19;37.87;;;23.20;;
12947;SDS011;6539;49.476;8.484;2022-12-11T15:11:07;43.40;;;24.37;;
12947;SDS011;6539;49.476;8.484;2022-12-11T15:13:53;43.70;;;23.57;;
12947;SDS011;6539;49.476;8.484;2022-12-11T15:16:23;46.30;;;24.73;;
12947;SDS011;6539;49.476;8.484;2022-12-11T15:18:54;42.07;;;24.07;;
12947;SDS011;6539;49.476;8.484;2022-12-11T15:21:29;42.30;;;24.73;;
12947;SDS011;6539;49.476;8.484;2022-12-11T15:24:03;42.80;;;23.83;;
12947;SDS011;6539;49.476;8.484;2022-12-11T15:26:56;42.63;;;24.33;;
12947;SDS011;6539;49.476;8.484;2022-12-11T15:29:35;49.57;;;25.43;;
12947;SDS011;6539;49.476;8.484;2022-12-11T15:34:54;43.17;;;24.07;;
12947;SDS011;6539;49.476;8.484;2022-12-11T15:37:30;43.27;;;24.97;;
12947;SDS011;6539;49.476;8.484;2022-12-11T15:40:00;43.30;;;24.17;;
12947;SDS011;6539;49.476;8.484;2022-12-11T15:45:07;41.97;;;24.43;;
12947;SDS011;6539;49.476;8.484;2022-12-11T15:47:42;42.63;;;25.63;;
12947;SDS011;6539;49.476;8.484;2022-12-11T15:50:13;38.77;;;23.60;;
12947;SDS011;6539;49.476;8.484;2022-12-11T15:52:52;41.20;;;22.10;;
12947;SDS011;6539;49.476;8.484;2022-12-11T15:55:22;43.80;;;24.07;;
12947;SDS011;6539;49.476;8.484;2022-12-11T15:57:57;42.47;;;24.27;;
12947;SDS011;6539;49.476;8.484;2022-12-11T16:00:37;48.50;;;24.07;;
12947;SDS011;6539;49.476;8.484;2022-12-11T16:03:03;46.47;;;25.70;;
12947;SDS011;6539;49.476;8.484;2022-12-11T16:05:29;44.27;;;24.80;;
12947;SDS011;6539;49.476;8.484;2022-12-11T16:07:57;46.80;;;26.13;;
12947;SDS011;6539;49.476;8.484;2022-12-11T16:10:25;42.00;;;23.23;;
12947;SDS011;6539;49.476;8.484;2022-12-11T16:12:51;43.40;;;23.50;;
12947;SDS011;6539;49.476;8.484;2022-12-11T16:15:23;41.97;;;24.77;;
12947;SDS011;6539;49.476;8.484;2022-12-11T16:18:12;46.60;;;25.17;;
12947;SDS011;6539;49.476;8.484;2022-12-11T16:20:40;45.67;;;25.60;;
12947;SDS011;6539;49.476;8.484;2022-12-11T16:23:08;43.83;;;23.90;;
12947;SDS011;6539;49.476;8.484;2022-12-11T16:25:44;44.93;;;25.60;;
12947;SDS011;6539;49.476;8.484;2022-12-11T16:28:12;44.90;;;25.70;;
12947;SDS011;6539;49.476;8.484;2022-12-11T16:30:43;49.27;;;28.70;;
12947;SDS011;6539;49.476;8.484;2022-12-11T16:33:09;43.27;;;25.03;;
12947;SDS011;6539;49.476;8.484;2022-12-11T16:35:40;47.37;;;27.03;;
12947;SDS011;6539;49.476;8.484;2022-12-11T16:38:09;47.93;;;26.07;;
12947;SDS011;6539;49.476;8.484;2022-12-11T16:40:38;48.33;;;25.50;;
12947;SDS011;6539;49.476;8.484;2022-12-11T16:43:05;51.13;;;25.40;;
12947;SDS011;6539;49.476;8.484;2022-12-11T16:45:33;46.57;;;25.37;;
12947;SDS011;6539;49.476;8.484;2022-12-11T16:48:02;44.03;;;26.03;;